Time;durP1;ratioP1;P1;durP2;ratioP2;P2;SDS_P1;SDS_P2;PMS_P1;PMS_P2;Temp;Humidity;BMP_temperature;BMP_pressure;BME280_temperature;BME280_humidity;BME280_pressure;Samples;Min_cycle;Max_cycle;Signal;HPM_P1;HPM_P2
2023/01/08 00:01:29;;;;;;;104.63;45.28;;;;;;;2.89;70.45;95736.91;4940447;28;20045;-76
2023/01/08 00:03:54;;;;;;;105.10;44.50;;;;;;;3.25;70.06;95762.44;4940217;29;20043;-76
2023/01/08 00:06:24;;;;;;;104.72;44.92;;;;;;;3.29;69.60;95758.34;4956918;28;20489;-76
2023/01/08 00:08:49;;;;;;;111.50;43.83;;;;;;;2.69;69.39;95662.88;4940443;28;20135;-76
2023/01/08 00:11:15;;;;;;;96.55;41.88;;;;;;;2.51;69.60;95647.09;4959759;28;20038;-75
2023/01/08 00:13:41;;;;;;;97.47;43.60;;;;;;;2.96;69.63;95716.69;4941254;28;20045;-75
2023/01/08 00:16:10;;;;;;;99.05;43.75;;;;;;;3.22;69.46;95762.84;4943080;28;20062;-75
2023/01/08 00:18:36;;;;;;;105.95;44.35;;;;;;;2.51;69.06;95661.00;4940241;28;20034;-76
2023/01/08 00:21:01;;;;;;;93.57;42.83;;;;;;;2.53;69.06;95658.16;4947424;28;20034;-75
2023/01/08 00:23:26;;;;;;;101.00;43.70;;;;;;;3.13;69.21;95774.59;4932685;29;20536;-76
2023/01/08 00:25:52;;;;;;;98.30;43.95;;;;;;;2.22;69.30;95623.09;4940168;28;20088;-75
2023/01/08 00:28:19;;;;;;;96.68;44.00;;;;;;;3.07;69.47;95760.53;4940066;29;20043;-75
2023/01/08 00:30:45;;;;;;;92.53;43.20;;;;;;;2.45;69.33;95672.28;4940264;28;20031;-76
2023/01/08 00:33:11;;;;;;;94.15;43.40;;;;;;;2.55;69.40;95679.69;4940224;28;20045;-76
2023/01/08 00:35:37;;;;;;;97.20;43.33;;;;;;;2.38;69.27;95671.53;4940208;28;20042;-76
2023/01/08 00:38:03;;;;;;;92.03;41.95;;;;;;;2.47;69.17;95687.78;4940209;28;20043;-76
2023/01/08 00:40:28;;;;;;;93.18;42.72;;;;;;;2.93;69.40;95766.09;4939100;28;20049;-76
2023/01/08 00:42:53;;;;;;;100.55;44.05;;;;;;;2.75;69.52;95742.44;4939798;28;20121;-76
2023/01/08 00:45:19;;;;;;;99.95;43.67;;;;;;;2.82;69.69;95767.56;4939438;28;20039;-76
2023/01/08 00:47:44;;;;;;;96.57;43.20;;;;;;;2.50;69.54;95714.38;4937794;29;20039;-76
2023/01/08 00:50:10;;;;;;;93.82;41.83;;;;;;;2.22;69.57;95683.28;4938073;29;20039;-76
2023/01/08 00:52:36;;;;;;;94.15;43.10;;;;;;;2.72;69.61;95757.56;4937928;28;20110;-76
2023/01/08 00:55:01;;;;;;;91.70;41.00;;;;;;;2.00;69.44;95652.41;4939654;28;20059;-76
2023/01/08 00:57:32;;;;;;;92.57;41.85;;;;;;;2.16;69.58;95667.63;4939520;28;20436;-77
2023/01/08 00:59:57;;;;;;;100.32;42.30;;;;;;;1.80;69.67;95627.16;4937669;29;20037;-77
2023/01/08 01:02:23;;;;;;;91.35;40.67;;;;;;;1.71;69.72;95614.50;4939166;29;20051;-74
2023/01/08 01:04:48;;;;;;;91.50;39.15;;;;;;;2.13;70.04;95696.84;4939895;28;20580;-75
2023/01/08 01:07:13;;;;;;;89.82;41.30;;;;;;;2.55;70.04;95766.09;4937825;28;20039;-75
2023/01/08 01:09:39;;;;;;;91.80;38.53;;;;;;;2.58;70.10;95773.53;4939389;28;20027;-75
2023/01/08 01:12:04;;;;;;;85.35;39.30;;;;;;;2.43;70.10;95747.63;4939076;29;20039;-74
2023/01/08 01:14:30;;;;;;;83.35;39.78;;;;;;;2.56;70.29;95760.66;4939896;28;20038;-75
2023/01/08 01:16:55;;;;;;;89.50;40.03;;;;;;;2.17;70.49;95708.47;4939214;29;20043;-76
2023/01/08 01:19:21;;;;;;;82.43;39.10;;;;;;;2.55;70.20;95759.03;4939733;29;20170;-76
2023/01/08 01:21:46;;;;;;;80.43;36.55;;;;;;;2.45;70.34;95750.81;4940089;28;20134;-76
2023/01/08 01:24:12;;;;;;;82.25;37.72;;;;;;;2.58;70.43;95761.25;4940785;28;20145;-76
2023/01/08 01:26:38;;;;;;;91.82;38.67;;;;;;;2.39;70.06;95737.78;4958251;28;20038;-76
2023/01/08 01:29:03;;;;;;;86.05;37.78;;;;;;;2.54;70.44;95756.63;4958002;28;20066;-76
2023/01/08 01:31:30;;;;;;;88.65;37.38;;;;;;;2.23;69.79;95705.84;4958548;28;20496;-75
2023/01/08 01:33:56;;;;;;;81.35;37.53;;;;;;;2.29;69.76;95718.06;4956524;28;20062;-75
2023/01/08 01:36:22;;;;;;;89.10;38.55;;;;;;;2.55;69.64;95751.19;4958863;28;20130;-75
2023/01/08 01:38:51;;;;;;;74.82;35.40;;;;;;;2.27;69.87;95724.56;4958537;28;20401;-75
2023/01/08 01:41:42;;;;;;;80.50;36.25;;;;;;;2.04;69.94;95685.81;4944506;28;20043;-75
2023/01/08 01:44:37;;;;;;;83.07;36.45;;;;;;;2.37;70.31;95756.28;4934198;29;20039;-75
2023/01/08 01:47:29;;;;;;;82.10;35.45;;;;;;;2.30;69.90;95748.47;4937426;28;20093;-75
2023/01/08 01:50:18;;;;;;;83.50;36.30;;;;;;;2.35;70.28;95749.69;4935764;28;20105;-75
2023/01/08 01:52:54;;;;;;;80.78;37.05;;;;;;;2.30;70.26;95751.09;4960132;28;20517;-75
2023/01/08 01:55:20;;;;;;;90.07;37.08;;;;;;;2.36;70.09;95751.28;4962327;28;20042;-76
2023/01/08 01:57:54;;;;;;;73.95;35.88;;;;;;;1.54;70.25;95625.41;4944430;28;20039;-75
2023/01/08 02:00:20;;;;;;;75.20;35.53;;;;;;;2.05;70.20;95713.56;4944631;28;20929;-75
2023/01/08 02:02:46;;;;;;;81.28;34.70;;;;;;;1.17;70.11;95566.84;4941609;29;20090;-75
2023/01/08 02:05:11;;;;;;;69.63;33.75;;;;;;;1.60;70.34;95649.16;4942724;28;20047;-75
2023/01/08 02:07:50;;;;;;;75.85;33.92;;;;;;;2.23;70.60;95736.44;4961384;28;20129;-75
2023/01/08 02:10:28;;;;;;;82.47;34.15;;;;;;;2.22;70.43;95737.44;4961850;28;20169;-75
2023/01/08 02:13:01;;;;;;;70.78;34.70;;;;;;;2.13;70.60;95715.16;4941281;29;20066;-76
2023/01/08 02:15:44;;;;;;;75.15;33.78;;;;;;;2.22;70.51;95735.63;4942372;29;20039;-76
2023/01/08 02:18:19;;;;;;;78.88;34.92;;;;;;;2.19;70.73;95728.22;4936999;28;20038;-76
2023/01/08 02:20:55;;;;;;;71.03;33.90;;;;;;;2.19;70.66;95730.00;4947292;28;20071;-75
2023/01/08 02:23:42;;;;;;;79.53;34.53;;;;;;;2.18;70.97;95729.22;4959506;28;20125;-75
2023/01/08 02:26:07;;;;;;;75.60;32.92;;;;;;;2.11;70.92;95728.44;4940833;29;20035;-75
2023/01/08 02:28:38;;;;;;;71.45;33.38;;;;;;;1.67;70.83;95655.16;4947762;28;20482;-75
2023/01/08 02:31:05;;;;;;;82.93;35.97;;;;;;;1.43;71.59;95614.81;4961417;28;20724;-75
2023/01/08 02:33:31;;;;;;;85.80;37.08;;;;;;;2.12;71.66;95719.59;4943705;28;20193;-75
2023/01/08 02:36:11;;;;;;;79.57;35.53;;;;;;;2.14;71.07;95720.16;4961412;28;20027;-75
2023/01/08 02:38:48;;;;;;;73.72;34.20;;;;;;;1.56;71.01;95622.59;4960014;28;20058;-77
2023/01/08 02:41:16;;;;;;;81.15;38.63;;;;;;;2.09;71.19;95717.38;4961517;28;20042;-75
2023/01/08 02:43:46;;;;;;;91.35;40.60;;;;;;;2.08;71.46;95718.38;4940608;28;20482;-75
2023/01/08 02:46:21;;;;;;;84.73;39.03;;;;;;;1.72;71.35;95650.91;4937668;29;20458;-75
2023/01/08 02:48:50;;;;;;;81.30;38.30;;;;;;;2.14;71.18;95712.31;4925978;28;20394;-75
2023/01/08 02:51:25;;;;;;;89.50;38.17;;;;;;;2.12;71.37;95703.88;4961879;28;20696;-75
2023/01/08 02:53:56;;;;;;;81.22;36.28;;;;;;;1.73;70.94;95647.28;4961125;28;20038;-75
2023/01/08 02:56:32;;;;;;;86.03;37.17;;;;;;;2.09;71.09;95696.44;4961138;28;20957;-75
2023/01/08 02:58:59;;;;;;;78.00;38.22;;;;;;;0.94;70.96;95529.94;4959495;28;20822;-75
2023/01/08 03:01:26;;;;;;;78.30;37.60;;;;;;;2.07;70.57;95708.09;4951328;28;20047;-76
2023/01/08 03:03:57;;;;;;;88.43;36.42;;;;;;;1.52;70.76;95626.66;4942147;28;20109;-76
2023/01/08 03:06:23;;;;;;;78.43;35.13;;;;;;;2.05;71.16;95715.38;4936751;28;20031;-76
2023/01/08 03:08:51;;;;;;;81.30;34.80;;;;;;;2.05;71.00;95720.63;4943415;28;20039;-76
2023/01/08 03:11:20;;;;;;;77.93;36.67;;;;;;;2.04;70.51;95716.38;4960800;28;20577;-75
2023/01/08 03:14:01;;;;;;;80.82;36.60;;;;;;;2.00;70.62;95712.56;4960979;28;20042;-76
2023/01/08 03:16:36;;;;;;;77.93;37.55;;;;;;;1.46;70.61;95641.31;4961205;28;20062;-75
2023/01/08 03:19:22;;;;;;;81.68;37.15;;;;;;;1.90;70.64;95713.03;4955587;28;20038;-76
2023/01/08 03:21:50;;;;;;;79.40;36.50;;;;;;;1.88;70.96;95718.44;4932300;28;20577;-76
2023/01/08 03:24:20;;;;;;;76.00;36.55;;;;;;;1.47;71.02;95648.16;4960470;28;20416;-76
2023/01/08 03:26:47;;;;;;;80.43;36.60;;;;;;;1.89;71.32;95716.66;4960629;28;20873;-75
2023/01/08 03:29:16;;;;;;;87.28;37.80;;;;;;;1.90;71.33;95720.88;4947541;28;20042;-75
2023/01/08 03:31:44;;;;;;;78.35;38.55;;;;;;;1.35;71.36;95662.06;4955390;28;20047;-75
2023/01/08 03:34:12;;;;;;;82.35;36.92;;;;;;;1.35;71.08;95649.81;4960528;28;20035;-75
2023/01/08 03:36:40;;;;;;;83.55;37.35;;;;;;;1.70;71.34;95704.41;4960549;28;20056;-75
2023/01/08 03:39:15;;;;;;;77.68;36.78;;;;;;;1.67;71.63;95708.25;4942585;28;20831;-75
2023/01/08 03:41:41;;;;;;;74.80;35.85;;;;;;;1.76;71.56;95719.28;4958255;28;20874;-75
2023/01/08 03:44:06;;;;;;;86.60;37.13;;;;;;;1.19;71.33;95621.50;4940956;29;20070;-75
2023/01/08 03:46:36;;;;;;;79.78;36.95;;;;;;;1.50;71.89;95660.03;4940651;28;20119;-74
2023/01/08 03:49:05;;;;;;;82.97;36.25;;;;;;;1.81;71.90;95716.88;4946382;28;20414;-75
2023/01/08 03:51:39;;;;;;;79.97;35.53;;;;;;;1.39;71.83;95643.16;4952766;28;20039;-76
2023/01/08 03:54:08;;;;;;;81.93;36.28;;;;;;;1.73;71.63;95688.31;4950478;28;20047;-75
2023/01/08 03:56:33;;;;;;;80.80;34.75;;;;;;;1.48;71.60;95647.16;4942453;28;20035;-76
2023/01/08 03:58:58;;;;;;;74.30;35.05;;;;;;;1.71;71.59;95680.69;4960212;28;20057;-75
2023/01/08 04:01:24;;;;;;;69.88;33.78;;;;;;;1.82;71.59;95697.56;4960315;28;20046;-76
2023/01/08 04:03:49;;;;;;;77.25;33.92;;;;;;;1.90;71.74;95723.47;4944908;28;20055;-75
2023/01/08 04:06:15;;;;;;;77.68;33.92;;;;;;;1.48;71.49;95648.97;4940893;29;20481;-75
2023/01/08 04:08:40;;;;;;;72.53;33.78;;;;;;;1.89;71.42;95714.84;4957745;28;20045;-75
2023/01/08 04:11:05;;;;;;;75.55;34.00;;;;;;;1.38;70.97;95640.75;4959484;28;20038;-75
2023/01/08 04:13:31;;;;;;;70.00;35.38;;;;;;;1.85;70.94;95715.44;4940995;28;20050;-75
2023/01/08 04:15:56;;;;;;;83.88;32.78;;;;;;;1.59;71.06;95671.06;4924291;28;20114;-75
2023/01/08 04:18:22;;;;;;;70.40;33.67;;;;;;;1.88;70.76;95717.66;4960008;28;21535;-75
2023/01/08 04:20:47;;;;;;;77.35;35.50;;;;;;;1.43;71.08;95646.97;4959139;28;20042;-75
2023/01/08 04:23:13;;;;;;;77.78;34.15;;;;;;;1.01;71.11;95584.75;4955246;28;20478;-77
2023/01/08 04:25:39;;;;;;;74.25;36.10;;;;;;;1.76;71.50;95712.22;4946267;28;20042;-77
2023/01/08 04:28:04;;;;;;;80.70;34.72;;;;;;;1.84;70.96;95725.09;4941785;28;20035;-76
2023/01/08 04:30:30;;;;;;;70.20;33.05;;;;;;;1.13;70.98;95615.28;4959561;28;20039;-77
2023/01/08 04:32:55;;;;;;;73.35;34.38;;;;;;;1.40;71.21;95676.13;4941856;28;20038;-77
2023/01/08 04:35:20;;;;;;;75.07;34.30;;;;;;;1.19;70.66;95639.78;4949586;28;20032;-76
2023/01/08 04:37:46;;;;;;;65.68;32.10;;;;;;;1.70;71.16;95725.31;4939864;28;20038;-74
2023/01/08 04:40:11;;;;;;;70.22;34.22;;;;;;;0.91;71.41;95631.41;4951784;28;20505;-76
2023/01/08 04:42:37;;;;;;;76.65;33.83;;;;;;;0.69;71.21;95583.78;4941402;28;20060;-74
2023/01/08 04:45:03;;;;;;;73.22;34.13;;;;;;;1.24;71.32;95671.31;4941364;28;20092;-75
2023/01/08 04:47:28;;;;;;;68.28;31.58;;;;;;;1.49;71.05;95718.53;4941493;28;20031;-75
2023/01/08 04:49:53;;;;;;;72.10;31.85;;;;;;;1.12;71.34;95663.31;4959354;28;20584;-75
2023/01/08 04:52:19;;;;;;;76.05;32.58;;;;;;;1.51;71.32;95721.75;4942495;28;20082;-74
2023/01/08 04:54:44;;;;;;;67.40;33.75;;;;;;;1.33;71.08;95700.66;4958162;28;20101;-75
2023/01/08 04:57:10;;;;;;;68.97;33.97;;;;;;;1.44;71.72;95726.19;4941397;28;20053;-75
2023/01/08 04:59:35;;;;;;;77.03;36.15;;;;;;;1.12;71.56;95670.34;4939684;28;20043;-75
2023/01/08 05:02:00;;;;;;;73.97;31.88;;;;;;;1.48;70.94;95732.59;4942836;28;20106;-75
2023/01/08 05:04:26;;;;;;;73.75;34.20;;;;;;;0.90;71.63;95630.59;4954821;28;20035;-75
2023/01/08 05:06:51;;;;;;;68.00;33.60;;;;;;;1.48;71.54;95741.25;4944526;28;20031;-75
2023/01/08 05:09:17;;;;;;;83.97;36.22;;;;;;;1.36;71.49;95714.16;4952527;28;20114;-75
2023/01/08 05:11:42;;;;;;;72.53;34.42;;;;;;;1.50;71.67;95730.59;4946931;28;20031;-75
2023/01/08 05:14:08;;;;;;;78.07;35.83;;;;;;;1.48;71.21;95735.22;4949766;28;20756;-75
2023/01/08 05:16:33;;;;;;;73.85;32.42;;;;;;;1.37;71.48;95704.50;4921172;29;20260;-75
2023/01/08 05:18:58;;;;;;;74.80;36.80;;;;;;;1.03;71.37;95648.03;4938766;29;20121;-75
2023/01/08 05:21:24;;;;;;;79.70;36.63;;;;;;;1.53;71.79;95724.94;4921491;29;20039;-75
2023/01/08 05:23:50;;;;;;;78.80;36.88;;;;;;;1.21;71.22;95679.59;4939195;29;20097;-75
2023/01/08 05:26:16;;;;;;;82.47;34.47;;;;;;;1.34;71.08;95700.47;4939025;29;20116;-75
2023/01/08 05:28:42;;;;;;;80.00;33.83;;;;;;;0.62;71.47;95601.25;4939360;28;20058;-75
2023/01/08 05:31:08;;;;;;;76.28;33.95;;;;;;;1.05;71.57;95666.94;4938991;28;20054;-75
2023/01/08 05:33:33;;;;;;;74.80;34.85;;;;;;;1.23;71.38;95695.84;4939155;29;20062;-75
2023/01/08 05:35:59;;;;;;;80.85;37.22;;;;;;;0.91;71.23;95647.06;4937391;29;20509;-74
2023/01/08 05:38:24;;;;;;;85.30;35.88;;;;;;;1.50;70.79;95731.41;4938852;28;20047;-74
2023/01/08 05:40:53;;;;;;;74.90;35.75;;;;;;;1.37;71.26;95718.38;4938997;28;20031;-77
2023/01/08 05:43:18;;;;;;;80.90;37.13;;;;;;;-0.17;70.72;95479.47;4922783;29;20501;-77
2023/01/08 05:45:43;;;;;;;91.53;37.15;;;;;;;1.08;70.85;95690.03;4937187;29;20082;-75
2023/01/08 05:48:09;;;;;;;87.38;37.28;;;;;;;1.03;70.87;95688.03;4939104;29;20078;-75
2023/01/08 05:50:34;;;;;;;81.20;38.75;;;;;;;0.95;70.38;95677.78;4939229;29;20129;-75
2023/01/08 05:53:00;;;;;;;80.90;36.75;;;;;;;1.04;70.90;95683.63;4937465;28;20637;-74
2023/01/08 05:55:25;;;;;;;87.55;36.95;;;;;;;1.13;70.86;95700.69;4936825;28;20069;-76
2023/01/08 05:57:51;;;;;;;79.78;36.67;;;;;;;1.07;71.21;95712.72;4937694;29;20038;-75
2023/01/08 06:00:16;;;;;;;83.50;38.10;;;;;;;1.32;70.92;95740.88;4937257;29;20049;-75
2023/01/08 06:02:46;;;;;;;85.95;37.28;;;;;;;0.91;70.91;95688.84;4938826;29;20069;-75
2023/01/08 06:05:12;;;;;;;79.90;37.90;;;;;;;1.34;70.82;95744.91;4938870;28;20827;-75
2023/01/08 06:07:37;;;;;;;72.53;35.58;;;;;;;0.62;70.98;95632.59;4938571;29;20039;-75
2023/01/08 06:10:03;;;;;;;82.53;37.53;;;;;;;0.82;71.12;95671.75;4938770;29;20094;-75
2023/01/08 06:12:29;;;;;;;79.43;35.05;;;;;;;0.79;71.22;95667.75;4938928;29;20050;-75
2023/01/08 06:14:54;;;;;;;98.97;38.97;;;;;;;1.20;70.70;95732.03;4938829;29;20047;-75
2023/01/08 06:17:19;;;;;;;93.10;40.67;;;;;;;0.42;70.98;95606.47;4938483;29;20089;-75
2023/01/08 06:19:46;;;;;;;86.35;41.03;;;;;;;0.90;70.75;95688.03;4937202;29;20050;-75
2023/01/08 06:22:11;;;;;;;89.65;41.30;;;;;;;1.30;70.69;95729.84;4942608;28;20047;-75
2023/01/08 06:24:37;;;;;;;103.38;43.90;;;;;;;1.37;70.95;95749.72;4940367;28;20081;-75
2023/01/08 06:27:02;;;;;;;101.45;44.80;;;;;;;0.72;70.86;95641.63;4950198;28;20114;-76
2023/01/08 06:29:27;;;;;;;101.65;43.15;;;;;;;1.26;70.83;95726.00;4946365;28;20051;-76
2023/01/08 06:31:53;;;;;;;102.18;44.78;;;;;;;0.69;70.92;95657.69;4940217;28;20098;-76
2023/01/08 06:34:18;;;;;;;110.38;45.35;;;;;;;1.26;71.06;95732.03;4939613;28;20053;-76
2023/01/08 06:36:44;;;;;;;99.55;44.17;;;;;;;1.48;70.66;95756.13;4958303;28;20097;-75
2023/01/08 06:39:09;;;;;;;99.90;42.83;;;;;;;0.67;70.94;95638.03;4959448;28;20042;-75
2023/01/08 06:41:34;;;;;;;109.65;46.65;;;;;;;1.10;70.56;95709.72;4961572;28;20046;-76
2023/01/08 06:44:00;;;;;;;104.10;46.03;;;;;;;1.14;70.32;95704.91;4960900;28;20039;-76
2023/01/08 06:46:26;;;;;;;112.70;49.67;;;;;;;1.21;70.81;95771.03;4960992;28;20046;-75
2023/01/08 06:48:51;;;;;;;110.78;50.72;;;;;;;0.65;70.96;95653.06;4961423;28;20622;-75
2023/01/08 06:51:16;;;;;;;122.72;51.55;;;;;;;0.93;70.40;95698.06;4960808;28;20129;-76
2023/01/08 06:53:42;;;;;;;112.32;49.60;;;;;;;1.11;69.77;95721.78;4961588;28;20070;-75
2023/01/08 06:56:09;;;;;;;107.93;49.75;;;;;;;1.09;69.86;95709.91;4941017;28;20046;-75
2023/01/08 06:58:36;;;;;;;115.68;51.88;;;;;;;1.27;69.67;95736.25;4924175;29;20043;-76
2023/01/08 07:01:02;;;;;;;106.28;49.95;;;;;;;1.47;69.96;95776.25;4929640;28;20045;-75
2023/01/08 07:03:27;;;;;;;124.38;54.22;;;;;;;1.38;69.64;95745.28;4943068;28;20042;-76
2023/01/08 07:05:52;;;;;;;106.57;50.65;;;;;;;1.60;69.55;95775.44;4961068;28;20857;-75
2023/01/08 07:08:18;;;;;;;121.22;52.38;;;;;;;0.85;69.40;95673.97;4951850;28;20039;-76
2023/01/08 07:10:44;;;;;;;112.15;51.15;;;;;;;1.25;69.47;95732.22;4924325;29;20039;-76
2023/01/08 07:13:11;;;;;;;107.57;50.30;;;;;;;1.55;69.53;95780.47;4953787;28;20047;-76
2023/01/08 07:15:37;;;;;;;118.10;51.38;;;;;;;1.52;69.85;95784.31;4961451;28;20041;-76
2023/01/08 07:18:07;;;;;;;109.97;47.35;;;;;;;1.02;70.46;95733.44;4960394;28;20038;-76
2023/01/08 07:20:33;;;;;;;126.10;56.33;;;;;;;1.26;70.06;95750.31;4942920;28;20089;-76
2023/01/08 07:23:03;;;;;;;136.73;59.72;;;;;;;1.57;70.08;95786.28;4960444;28;20061;-75
2023/01/08 07:25:29;;;;;;;124.18;57.28;;;;;;;1.62;69.63;95786.47;4960488;28;20043;-76
2023/01/08 07:27:55;;;;;;;140.98;58.55;;;;;;;1.63;69.45;95782.88;4960632;28;20051;-75
2023/01/08 07:30:21;;;;;;;119.18;57.67;;;;;;;1.41;69.50;95748.31;4958332;28;20034;-76
2023/01/08 07:32:46;;;;;;;128.20;56.33;;;;;;;1.12;69.41;95704.31;4944377;28;20927;-75
2023/01/08 07:35:12;;;;;;;120.15;57.17;;;;;;;0.73;69.65;95656.28;4955886;28;20192;-76
2023/01/08 07:37:44;;;;;;;113.97;56.97;;;;;;;1.50;69.55;95786.31;4928662;28;20420;-76
2023/01/08 07:40:11;;;;;;;114.78;55.45;;;;;;;0.84;70.34;95714.16;4953705;28;20550;-76
2023/01/08 07:42:37;;;;;;;109.75;53.63;;;;;;;1.48;70.53;95800.56;4940902;28;20045;-75
2023/01/08 07:45:03;;;;;;;116.38;53.38;;;;;;;-0.12;70.47;95567.50;4949735;28;20129;-76
2023/01/08 07:47:29;;;;;;;110.90;52.38;;;;;;;0.92;70.51;95732.22;4942224;28;20035;-75
2023/01/08 07:49:54;;;;;;;119.85;53.42;;;;;;;1.51;69.90;95798.38;4941514;28;20908;-75
2023/01/08 07:52:19;;;;;;;107.15;53.17;;;;;;;1.52;69.84;95793.94;4959934;28;20481;-75
2023/01/08 07:54:45;;;;;;;117.03;55.15;;;;;;;1.10;69.72;95708.91;4958798;28;20522;-75
2023/01/08 07:57:11;;;;;;;116.25;52.90;;;;;;;1.69;69.66;95800.34;4942518;28;20101;-75
2023/01/08 07:59:36;;;;;;;106.93;51.92;;;;;;;1.75;69.79;95802.19;4942124;28;20129;-75
2023/01/08 08:02:01;;;;;;;107.63;51.63;;;;;;;1.84;69.67;95802.75;4959764;28;20043;-75
2023/01/08 08:04:27;;;;;;;105.72;53.15;;;;;;;1.63;69.46;95758.53;4959667;28;20658;-75
2023/01/08 08:06:53;;;;;;;111.93;54.15;;;;;;;1.78;69.64;95773.00;4959361;28;20047;-75
2023/01/08 08:09:18;;;;;;;101.55;51.22;;;;;;;1.79;69.70;95768.56;4942163;28;20046;-75
2023/01/08 08:11:44;;;;;;;108.22;51.60;;;;;;;1.90;69.56;95781.84;4959659;28;20454;-75
2023/01/08 08:14:09;;;;;;;108.85;50.55;;;;;;;1.82;69.53;95755.91;4941860;28;20101;-75
2023/01/08 08:16:34;;;;;;;117.38;52.40;;;;;;;2.11;69.80;95790.44;4957468;28;20027;-75
2023/01/08 08:19:00;;;;;;;108.65;50.08;;;;;;;1.86;69.87;95746.63;4938283;28;20049;-75
2023/01/08 08:21:25;;;;;;;103.05;49.17;;;;;;;2.12;69.91;95778.97;4929618;28;20053;-75
2023/01/08 08:23:51;;;;;;;108.38;50.08;;;;;;;1.92;69.71;95737.13;4938510;29;20133;-75
2023/01/08 08:26:16;;;;;;;100.75;49.95;;;;;;;2.22;70.00;95781.94;4938712;29;20050;-75
2023/01/08 08:28:42;;;;;;;104.25;51.58;;;;;;;2.09;69.46;95748.75;4923124;29;20106;-76
2023/01/08 08:31:07;;;;;;;119.85;53.92;;;;;;;2.03;69.95;95736.50;4940127;29;20113;-75
2023/01/08 08:33:33;;;;;;;124.68;51.70;;;;;;;2.51;69.89;95797.13;4940601;28;20557;-76
2023/01/08 08:35:58;;;;;;;123.82;55.85;;;;;;;1.74;69.97;95679.47;4940285;29;20066;-76
2023/01/08 08:38:25;;;;;;;129.02;59.30;;;;;;;2.41;70.56;95794.16;4939388;29;20035;-76
2023/01/08 08:40:51;;;;;;;124.78;61.38;;;;;;;2.60;70.14;95797.69;4939571;28;20417;-75
2023/01/08 08:43:16;;;;;;;130.45;63.05;;;;;;;2.22;70.90;95755.75;4939770;29;20811;-76
2023/01/08 08:45:41;;;;;;;121.60;57.67;;;;;;;2.23;70.82;95734.63;4939317;28;20047;-75
2023/01/08 08:48:07;;;;;;;127.22;58.00;;;;;;;2.72;70.80;95790.78;4939196;29;20039;-75
2023/01/08 08:50:34;;;;;;;113.80;54.90;;;;;;;2.80;70.33;95795.78;4922032;29;20896;-75
2023/01/08 08:53:01;;;;;;;119.75;55.13;;;;;;;2.45;70.53;95722.03;4939763;29;20484;-75
2023/01/08 08:55:27;;;;;;;107.07;52.72;;;;;;;2.35;71.19;95719.06;4937788;29;20571;-75
2023/01/08 08:57:53;;;;;;;110.95;53.78;;;;;;;2.96;71.03;95789.25;4939720;28;20039;-75
2023/01/08 09:00:18;;;;;;;110.22;49.22;;;;;;;3.01;71.02;95786.78;4925819;29;20098;-76
2023/01/08 09:02:44;;;;;;;109.00;50.63;;;;;;;2.99;70.64;95773.09;4939361;28;20090;-76
2023/01/08 09:05:10;;;;;;;100.22;50.60;;;;;;;2.80;70.67;95737.34;4937764;29;20508;-76
2023/01/08 09:07:35;;;;;;;96.95;47.45;;;;;;;2.54;70.53;95691.16;4939420;28;20083;-76
2023/01/08 09:10:02;;;;;;;102.28;48.47;;;;;;;2.97;70.47;95739.25;4938193;29;20142;-76
2023/01/08 09:12:27;;;;;;;106.40;48.60;;;;;;;3.17;70.40;95754.03;4939507;29;20039;-76
2023/01/08 09:14:53;;;;;;;100.57;50.75;;;;;;;3.36;70.37;95777.47;4939611;29;20041;-76
2023/01/08 09:17:20;;;;;;;110.15;53.17;;;;;;;3.29;70.81;95774.09;4939325;28;20046;-76
2023/01/08 09:19:46;;;;;;;111.88;52.10;;;;;;;3.40;70.91;95775.22;4939664;29;20085;-76
2023/01/08 09:22:11;;;;;;;101.78;49.10;;;;;;;3.25;70.64;95738.84;4922027;29;20059;-76
2023/01/08 09:24:36;;;;;;;105.45;47.50;;;;;;;3.49;70.71;95763.47;4937604;28;20557;-76
2023/01/08 09:27:02;;;;;;;99.00;47.50;;;;;;;3.54;70.50;95754.94;4939398;28;20035;-76
2023/01/08 09:29:27;;;;;;;96.97;47.75;;;;;;;3.22;70.66;95696.53;4939827;28;20031;-76
2023/01/08 09:31:53;;;;;;;95.88;47.30;;;;;;;3.56;70.47;95737.97;4939834;28;20051;-75
2023/01/08 09:34:18;;;;;;;98.75;45.58;;;;;;;3.59;70.15;95724.41;4939833;28;20512;-75
2023/01/08 09:36:44;;;;;;;90.28;45.78;;;;;;;3.78;70.37;95748.88;4937780;29;20043;-75
2023/01/08 09:39:09;;;;;;;89.38;44.92;;;;;;;3.59;70.02;95721.78;4938743;29;20035;-75
2023/01/08 09:41:41;;;;;;;93.55;43.95;;;;;;;3.76;70.52;95735.97;4936916;28;20042;-75
2023/01/08 09:44:06;;;;;;;;;;;;;;;3.86;70.39;95738.91;4937404;29;20671;-75
2023/01/08 09:46:33;;;;;;;67.28;33.08;;;;;;;3.93;70.58;95733.56;4936947;28;19933;-75
2023/01/08 09:49:03;;;;;;;62.67;30.95;;;;;;;3.48;70.26;95635.97;4938573;28;20118;-75
2023/01/08 09:51:37;;;;;;;68.68;33.35;;;;;;;4.08;70.15;95722.72;4938505;28;20565;-76
2023/01/08 09:54:06;;;;;;;63.15;28.77;;;;;;;4.06;69.61;95719.50;4938936;28;20082;-75
2023/01/08 09:56:34;;;;;;;52.42;27.65;;;;;;;4.15;69.91;95712.94;4939251;28;20041;-75
2023/01/08 09:59:02;;;;;;;54.40;28.50;;;;;;;3.64;69.05;95619.66;4938798;28;20061;-75
2023/01/08 10:01:30;;;;;;;59.40;27.98;;;;;;;4.31;68.84;95706.28;4938907;28;20914;-75
2023/01/08 10:03:58;;;;;;;59.10;28.42;;;;;;;4.27;69.29;95703.31;4938872;28;20421;-76
2023/01/08 10:06:24;;;;;;;62.10;28.02;;;;;;;4.40;68.93;95699.72;4938811;28;20039;-76
2023/01/08 10:08:51;;;;;;;55.38;28.08;;;;;;;3.98;69.28;95643.69;4938407;28;20039;-75
2023/01/08 10:11:17;;;;;;;58.47;28.13;;;;;;;4.28;69.26;95676.81;4938856;28;20416;-75
2023/01/08 10:13:48;;;;;;;61.03;28.90;;;;;;;4.51;69.06;95691.88;4940472;28;20053;-75
2023/01/08 10:16:26;;;;;;;53.63;28.70;;;;;;;4.11;68.33;95625.97;4942994;28;20131;-76
2023/01/08 10:18:52;;;;;;;74.68;36.97;;;;;;;3.61;68.45;95551.91;4942744;28;20498;-76
2023/01/08 10:21:17;;;;;;;78.03;38.42;;;;;;;4.44;69.48;95691.16;4942292;28;20042;-76
2023/01/08 10:23:51;;;;;;;73.07;36.75;;;;;;;4.82;68.52;95645.34;4940519;29;20063;-76
2023/01/08 10:26:37;;;;;;;67.70;34.38;;;;;;;5.69;65.16;95657.63;4941264;29;20043;-76
2023/01/08 10:29:17;;;;;;;80.43;35.35;;;;;;;6.58;63.39;95663.34;4942399;28;20082;-76
2023/01/08 10:31:51;;;;;;;54.97;31.42;;;;;;;6.79;60.28;95580.94;4942303;28;20096;-76
2023/01/08 10:34:47;;;;;;;61.72;32.30;;;;;;;7.96;58.50;95664.41;4942272;28;20763;-76
2023/01/08 10:37:25;;;;;;;67.18;31.38;;;;;;;8.43;56.67;95660.25;4941307;28;20142;-76
2023/01/08 10:39:54;;;;;;;58.33;31.17;;;;;;;8.44;55.21;95640.72;4942262;28;20031;-76
2023/01/08 10:42:21;;;;;;;60.05;32.72;;;;;;;8.66;54.51;95597.56;4940602;28;20886;-76
2023/01/08 10:44:58;;;;;;;59.90;31.88;;;;;;;9.16;53.77;95605.09;4940399;28;20130;-76
2023/01/08 10:47:25;;;;;;;64.10;32.22;;;;;;;8.98;52.43;95489.91;4942045;28;20043;-76
2023/01/08 10:49:50;;;;;;;58.85;31.23;;;;;;;9.59;51.45;95569.66;4941827;28;20489;-76
2023/01/08 10:52:27;;;;;;;62.33;31.58;;;;;;;10.10;51.81;95639.56;4942376;28;20114;-76
2023/01/08 10:54:53;;;;;;;52.70;29.35;;;;;;;9.69;50.84;95573.13;4942031;28;20049;-76
2023/01/08 10:57:26;;;;;;;57.47;29.45;;;;;;;10.40;49.93;95628.28;4940378;28;20580;-76
2023/01/08 10:59:51;;;;;;;57.92;30.55;;;;;;;10.32;49.79;95589.84;4941894;28;20039;-76
2023/01/08 11:02:27;;;;;;;54.83;28.65;;;;;;;9.94;51.19;95582.25;4942173;28;20046;-76
2023/01/08 11:04:53;;;;;;;50.60;27.70;;;;;;;9.84;51.34;95588.28;4941504;28;20042;-76
2023/01/08 11:07:22;;;;;;;57.38;29.35;;;;;;;9.89;50.94;95566.34;4939957;29;20506;-76
2023/01/08 11:09:50;;;;;;;57.28;28.17;;;;;;;9.60;51.87;95548.22;4940283;28;20117;-76
2023/01/08 11:12:45;;;;;;;48.60;27.90;;;;;;;9.96;51.88;95618.03;4939606;28;20181;-77
2023/01/08 11:15:13;;;;;;;46.85;26.60;;;;;;;9.88;51.96;95617.72;4940675;28;20054;-76
2023/01/08 11:17:39;;;;;;;54.67;26.65;;;;;;;9.32;52.15;95604.16;4939655;28;20043;-76
2023/01/08 11:20:22;;;;;;;45.75;26.42;;;;;;;9.27;53.21;95606.78;4941543;28;20054;-76
2023/01/08 11:22:47;;;;;;;57.38;29.00;;;;;;;9.11;54.09;95611.16;4947319;28;20055;-76
2023/01/08 11:25:19;;;;;;;44.47;26.05;;;;;;;9.11;53.48;95570.69;4939038;28;20816;-76
2023/01/08 11:27:45;;;;;;;53.97;27.58;;;;;;;9.32;52.33;95569.75;4960216;28;20046;-76